createdAt,value
2018-03-26T00:00:22.450Z,41.10
2018-03-26T00:02:50.742Z,37.77
2018-03-26T00:05:18.254Z,44.03
2018-03-26T00:07:45.777Z,41.10
2018-03-26T00:10:13.279Z,42.53
2018-03-26T00:12:40.802Z,40.00
2018-03-26T00:15:08.306Z,43.47
2018-03-26T00:17:36.606Z,40.47
2018-03-26T00:20:04.114Z,44.40
2018-03-26T00:22:31.638Z,40.63
2018-03-26T00:24:59.153Z,36.67
2018-03-26T00:27:26.686Z,48.03
2018-03-26T00:29:54.191Z,47.00
2018-03-26T00:32:21.714Z,34.47
2018-03-26T00:34:49.274Z,37.50
2018-03-26T00:37:16.763Z,43.13
2018-03-26T00:39:45.034Z,33.40
2018-03-26T00:42:13.328Z,39.80
2018-03-26T00:44:40.836Z,35.70
2018-03-26T00:47:08.363Z,40.40
2018-03-26T00:49:35.886Z,43.23
2018-03-26T00:52:04.176Z,41.47
2018-03-26T00:54:31.684Z,44.50
2018-03-26T00:56:59.240Z,41.77
2018-03-26T00:59:26.718Z,37.27
2018-03-26T01:01:54.243Z,42.13
2018-03-26T01:04:21.754Z,44.70
2018-03-26T01:06:50.046Z,36.20
2018-03-26T01:09:17.545Z,38.83
2018-03-26T01:11:45.835Z,39.37
2018-03-26T01:14:13.342Z,40.63
2018-03-26T01:16:40.862Z,40.63
2018-03-26T01:19:08.363Z,43.90
2018-03-26T01:21:35.891Z,45.50
2018-03-26T01:24:04.158Z,38.93
2018-03-26T01:26:32.447Z,38.40
2018-03-26T01:29:00.719Z,36.27
2018-03-26T01:31:29.011Z,37.20
2018-03-26T01:33:56.523Z,41.77
2018-03-26T01:36:24.038Z,42.73
2018-03-26T01:38:51.548Z,39.37
2018-03-26T01:41:19.078Z,40.40
2018-03-26T01:43:46.583Z,41.10
2018-03-26T01:46:14.847Z,37.90
2018-03-26T01:48:42.370Z,39.10
2018-03-26T01:51:09.879Z,38.43
2018-03-26T01:53:38.175Z,41.90
2018-03-26T01:56:05.678Z,42.20
2018-03-26T01:58:33.204Z,38.57
2018-03-26T02:01:00.717Z,41.60
2018-03-26T02:03:29.011Z,35.50
2018-03-26T02:05:57.283Z,36.47
2018-03-26T02:08:25.575Z,38.20
2018-03-26T02:10:53.079Z,38.53
2018-03-26T02:13:20.598Z,43.23
2018-03-26T02:15:48.106Z,35.07
2018-03-26T02:18:15.636Z,40.03
2018-03-26T02:20:43.146Z,46.03
2018-03-26T02:23:11.435Z,38.30
2018-03-26T02:25:38.972Z,43.80
2018-03-26T02:28:06.499Z,43.30
2018-03-26T02:30:34.011Z,34.67
2018-03-26T02:33:01.567Z,45.70
2018-03-26T02:35:29.836Z,46.40
2018-03-26T02:37:58.127Z,46.60
2018-03-26T02:40:25.640Z,40.03
2018-03-26T02:42:53.937Z,37.87
2018-03-26T02:45:22.212Z,41.30
2018-03-26T02:47:50.508Z,46.67
2018-03-26T02:50:18.019Z,39.50
2018-03-26T02:52:45.549Z,36.43
2018-03-26T02:55:13.067Z,35.47
2018-03-26T02:57:41.354Z,42.10
2018-03-26T03:00:08.867Z,41.43
2018-03-26T03:02:36.397Z,35.80
2018-03-26T03:05:03.915Z,41.73
2018-03-26T03:07:32.207Z,40.20
2018-03-26T03:09:59.715Z,45.23
2018-03-26T03:12:27.239Z,38.30
2018-03-26T03:14:54.755Z,41.43
2018-03-26T03:17:22.283Z,52.70
2018-03-26T03:19:49.786Z,48.03
2018-03-26T03:22:18.083Z,43.97
2018-03-26T03:24:45.598Z,44.20
2018-03-26T03:27:13.119Z,53.03
2018-03-26T03:29:40.631Z,42.50
2018-03-26T03:32:08.977Z,44.83
2018-03-26T03:34:36.446Z,45.17
2018-03-26T03:37:03.967Z,39.90
2018-03-26T03:39:31.474Z,41.10
2018-03-26T03:41:59.023Z,50.27
2018-03-26T03:44:26.535Z,48.33
2018-03-26T03:46:54.054Z,45.30
2018-03-26T03:49:21.584Z,43.30
2018-03-26T03:51:49.102Z,46.83
2018-03-26T03:54:16.631Z,41.53
2018-03-26T03:56:44.906Z,46.30
2018-03-26T03:59:12.438Z,50.47
2018-03-26T04:01:39.936Z,45.63
2018-03-26T04:04:08.228Z,49.77
2018-03-26T04:06:35.751Z,39.13
2018-03-26T04:09:03.270Z,44.03
2018-03-26T04:11:30.767Z,46.47
2018-03-26T04:13:58.286Z,40.77
2018-03-26T04:16:25.791Z,47.50
2018-03-26T04:18:54.082Z,51.80
2018-03-26T04:21:22.354Z,38.13
2018-03-26T04:23:50.647Z,40.43
2018-03-26T04:26:18.153Z,44.00
2018-03-26T04:28:45.674Z,46.43
2018-03-26T04:31:13.183Z,43.80
2018-03-26T04:33:40.711Z,50.27
2018-03-26T04:36:08.979Z,51.00
2018-03-26T04:38:36.511Z,43.73
2018-03-26T04:41:04.028Z,50.80
2018-03-26T04:43:31.546Z,40.20
2018-03-26T04:45:59.055Z,45.33
2018-03-26T04:48:26.578Z,38.97
2018-03-26T04:50:54.079Z,39.07
2018-03-26T04:53:22.374Z,38.43
2018-03-26T04:55:49.934Z,36.63
2018-03-26T04:58:17.419Z,35.57
2018-03-26T05:00:44.930Z,40.00
2018-03-26T05:03:13.213Z,34.70
2018-03-26T05:05:41.480Z,33.53
2018-03-26T05:08:09.763Z,35.77
2018-03-26T05:10:38.030Z,38.67
2018-03-26T05:13:05.551Z,35.37
2018-03-26T05:15:33.063Z,38.27
2018-03-26T05:18:01.355Z,36.77
2018-03-26T05:20:28.866Z,38.10
2018-03-26T05:22:56.394Z,39.53
2018-03-26T05:25:23.902Z,38.47
2018-03-26T05:27:52.198Z,36.50
2018-03-26T05:30:19.703Z,39.70
2018-03-26T05:32:47.231Z,40.63
2018-03-26T05:35:14.732Z,41.33
2018-03-26T05:37:42.258Z,40.33
2018-03-26T05:40:09.766Z,41.87
2018-03-26T05:42:38.062Z,41.50
2018-03-26T05:45:05.583Z,44.90
2018-03-26T05:47:33.890Z,49.77
2018-03-26T05:50:02.150Z,35.97
2018-03-26T05:52:30.423Z,38.53
2018-03-26T05:54:58.710Z,45.10
2018-03-26T05:57:26.991Z,46.20
2018-03-26T05:59:55.358Z,48.42
2018-03-26T06:02:23.624Z,40.53
2018-03-26T06:04:51.487Z,45.17
2018-03-26T06:07:18.998Z,38.30
2018-03-26T06:09:46.512Z,38.40
2018-03-26T06:12:14.786Z,52.93
2018-03-26T06:14:42.307Z,52.10
2018-03-26T06:17:10.739Z,48.47
2018-03-26T06:19:39.398Z,50.20
2018-03-26T06:22:06.907Z,48.27
2018-03-26T06:24:34.441Z,48.73
2018-03-26T06:27:02.706Z,41.10
2018-03-26T06:29:30.994Z,42.43
2018-03-26T06:31:59.273Z,47.73
2018-03-26T06:34:27.559Z,46.23
2018-03-26T06:39:52.739Z,48.50
2018-03-26T06:42:20.243Z,45.27
2018-03-26T06:44:47.770Z,60.47
2018-03-26T06:47:16.038Z,38.17
2018-03-26T06:49:43.562Z,45.50
2018-03-26T06:52:11.067Z,42.53
2018-03-26T06:54:38.602Z,40.00
2018-03-26T06:57:06.097Z,48.93
2018-03-26T06:59:34.378Z,49.10
2018-03-26T07:02:01.879Z,51.03
2018-03-26T07:04:29.413Z,42.23
2018-03-26T07:06:56.918Z,41.17
2018-03-26T07:09:24.445Z,41.43
2018-03-26T07:11:51.946Z,36.03
2018-03-26T07:14:20.234Z,36.07
2018-03-26T07:16:48.507Z,33.90
2018-03-26T07:19:16.799Z,38.90
2018-03-26T07:21:44.313Z,39.70
2018-03-26T07:24:11.850Z,32.20
2018-03-26T07:26:39.350Z,36.67
2018-03-26T07:29:07.643Z,38.60
2018-03-26T07:31:35.915Z,40.27
2018-03-26T07:34:04.268Z,49.27
2018-03-26T07:36:31.735Z,54.50
2018-03-26T07:38:59.246Z,53.33
2018-03-26T07:41:26.758Z,63.00
2018-03-26T07:43:55.047Z,63.50
2018-03-26T07:46:23.315Z,67.00
2018-03-26T07:48:51.598Z,73.80
2018-03-26T07:51:19.870Z,67.73
2018-03-26T07:53:48.158Z,61.40
2018-03-26T07:56:15.666Z,66.53
2018-03-26T07:58:43.191Z,56.20
2018-03-26T08:01:10.690Z,73.23
2018-03-26T08:03:38.203Z,63.40
2018-03-26T08:06:05.704Z,59.67
2018-03-26T08:08:33.219Z,62.17
2018-03-26T08:11:00.719Z,59.37
2018-03-26T08:13:28.263Z,65.60
2018-03-26T08:15:55.767Z,59.90
2018-03-26T08:18:24.043Z,56.73
2018-03-26T08:20:52.325Z,61.53
2018-03-26T08:23:20.594Z,65.40
2018-03-26T08:25:48.878Z,64.47
2018-03-26T08:28:16.711Z,64.33
2018-03-26T08:30:44.260Z,63.07
2018-03-26T08:33:11.749Z,67.10
2018-03-26T08:35:40.050Z,64.10
2018-03-26T08:38:07.559Z,61.40
2018-03-26T08:40:35.085Z,60.40
2018-03-26T08:43:02.590Z,60.17
2018-03-26T08:45:30.879Z,49.90
2018-03-26T08:47:59.147Z,61.43
2018-03-26T08:50:27.493Z,55.67
2018-03-26T08:52:54.963Z,62.63
2018-03-26T08:55:22.483Z,55.40
2018-03-26T08:57:49.990Z,56.40
2018-03-26T09:00:17.515Z,63.10
2018-03-26T09:02:45.019Z,63.23
2018-03-26T09:05:13.298Z,50.83
2018-03-26T09:07:41.562Z,53.90
2018-03-26T09:10:09.843Z,64.07
2018-03-26T09:12:38.114Z,60.07
2018-03-26T09:15:06.442Z,57.67
2018-03-26T09:17:33.993Z,61.60
2018-03-26T09:20:02.247Z,70.60
2018-03-26T09:22:29.747Z,73.03
2018-03-26T09:24:57.279Z,63.53
2018-03-26T09:27:24.778Z,59.50
2018-03-26T09:29:52.298Z,58.93
2018-03-26T09:32:19.800Z,60.50
2018-03-26T09:34:47.340Z,55.27
2018-03-26T09:37:14.843Z,53.33
2018-03-26T09:39:43.139Z,58.70
2018-03-26T09:42:10.639Z,59.30
2018-03-26T09:44:38.155Z,65.60
2018-03-26T09:47:05.663Z,58.17
2018-03-26T09:49:33.191Z,57.73
2018-03-26T09:52:00.690Z,64.13
2018-03-26T09:54:28.205Z,58.47
2018-03-26T09:56:55.702Z,58.70
2018-03-26T09:59:23.250Z,67.87
2018-03-26T10:01:56.547Z,65.67
2018-03-26T10:04:24.071Z,64.77
2018-03-26T10:06:51.571Z,62.63
2018-03-26T10:09:19.119Z,60.37
2018-03-26T10:11:46.623Z,59.03
2018-03-26T10:14:14.132Z,55.87
2018-03-26T10:16:41.962Z,56.03
2018-03-26T10:19:09.475Z,55.63
2018-03-26T10:21:36.994Z,57.63
2018-03-26T10:24:04.494Z,57.93
2018-03-26T10:26:32.350Z,56.73
2018-03-26T10:28:59.860Z,59.03
2018-03-26T10:31:27.378Z,60.17
2018-03-26T10:33:55.641Z,54.73
2018-03-26T10:36:23.157Z,59.53
2018-03-26T10:38:50.662Z,53.30
2018-03-26T10:41:18.179Z,59.13
2018-03-26T10:43:45.687Z,56.57
2018-03-26T10:46:13.966Z,52.03
2018-03-26T10:48:42.230Z,55.30
2018-03-26T10:51:09.787Z,57.23
2018-03-26T10:53:37.262Z,58.93
2018-03-26T10:56:05.556Z,56.90
2018-03-26T10:58:33.070Z,55.40
2018-03-26T11:01:00.600Z,70.00
2018-03-26T11:03:28.105Z,63.33
2018-03-26T11:05:56.399Z,52.10
2018-03-26T11:08:23.908Z,50.80
2018-03-26T11:10:51.422Z,57.60
2018-03-26T11:13:18.927Z,60.70
2018-03-26T11:15:47.224Z,57.83
2018-03-26T11:18:14.727Z,66.53
2018-03-26T11:20:42.243Z,63.43
2018-03-26T11:23:09.792Z,53.73
2018-03-26T11:25:37.317Z,59.77
2018-03-26T11:28:04.841Z,47.30
2018-03-26T11:30:32.362Z,55.67
2018-03-26T11:32:59.859Z,54.87
2018-03-26T11:35:27.374Z,58.97
2018-03-26T11:37:54.879Z,61.73
2018-03-26T11:40:22.398Z,53.67
2018-03-26T11:42:49.902Z,63.87
2018-03-26T11:45:17.422Z,64.13
2018-03-26T11:47:44.921Z,62.30
2018-03-26T11:50:12.444Z,61.00
2018-03-26T11:52:40.714Z,61.43
2018-03-26T11:55:09.011Z,57.97
2018-03-26T11:57:37.278Z,58.60
2018-03-26T12:00:05.570Z,61.63
2018-03-26T12:02:33.888Z,61.77
2018-03-26T12:05:02.172Z,62.70
2018-03-26T12:07:29.684Z,59.93
2018-03-26T12:09:57.199Z,68.80
2018-03-26T12:12:24.719Z,63.57
2018-03-26T12:14:52.218Z,67.80
2018-03-26T12:17:19.744Z,65.20
2018-03-26T12:19:59.114Z,61.20
2018-03-26T12:22:26.639Z,67.20
2018-03-26T12:25:09.827Z,71.70
2018-03-26T12:27:49.738Z,67.90
2018-03-26T12:30:24.896Z,57.37
2018-03-26T12:32:53.175Z,63.10
2018-03-26T12:35:33.397Z,66.80
2018-03-26T12:38:00.900Z,65.30
2018-03-26T12:40:40.127Z,64.53
2018-03-26T12:43:08.399Z,60.70
2018-03-26T12:45:48.847Z,66.00
2018-03-26T12:48:16.355Z,63.20
2018-03-26T12:50:55.791Z,73.20
2018-03-26T12:53:23.301Z,65.60
2018-03-26T12:55:50.850Z,70.83
2018-03-26T12:58:30.147Z,58.37
2018-03-26T13:01:09.402Z,60.00
2018-03-26T13:03:36.902Z,60.43
2018-03-26T13:06:05.191Z,68.70
2018-03-26T13:08:33.455Z,67.60
2018-03-26T13:11:01.714Z,72.43
2018-03-26T13:13:29.236Z,69.87
2018-03-26T13:15:56.807Z,74.77
2018-03-26T13:18:24.341Z,72.90
2018-03-26T13:20:51.847Z,67.00
2018-03-26T13:23:19.370Z,68.77
2018-03-26T13:25:46.875Z,78.70
2018-03-26T13:28:15.223Z,74.13
2018-03-26T13:30:42.683Z,77.20
2018-03-26T13:33:10.262Z,74.90
2018-03-26T13:35:38.555Z,77.77
2018-03-26T13:38:06.842Z,77.37
2018-03-26T13:40:34.343Z,82.67
2018-03-26T13:43:01.871Z,75.93
2018-03-26T13:45:29.378Z,78.93
2018-03-26T13:47:56.912Z,86.53
2018-03-26T13:50:25.178Z,74.80
2018-03-26T13:52:52.691Z,75.40
2018-03-26T13:55:20.966Z,78.23
2018-03-26T13:57:49.235Z,84.17
2018-03-26T14:00:17.526Z,78.07
2018-03-26T14:02:45.794Z,75.97
2018-03-26T14:05:14.357Z,78.27
2018-03-26T14:07:41.858Z,68.83
2018-03-26T14:10:21.259Z,75.13
2018-03-26T14:13:00.766Z,79.03
2018-03-26T14:15:40.119Z,89.73
2018-03-26T14:18:07.619Z,87.57
2018-03-26T14:20:35.140Z,88.77
2018-03-26T14:23:02.964Z,92.03
2018-03-26T14:25:30.487Z,99.80
2018-03-26T14:27:58.754Z,75.53
2018-03-26T14:30:26.275Z,75.07
2018-03-26T14:32:53.786Z,104.07
2018-03-26T14:38:21.710Z,144.67
2018-03-26T14:40:49.235Z,106.10
2018-03-26T14:43:17.498Z,84.17
2018-03-26T14:45:45.783Z,85.30
2018-03-26T14:48:14.051Z,101.33
2018-03-26T14:50:42.317Z,87.50
2018-03-26T14:53:09.843Z,79.10
2018-03-26T14:55:37.342Z,90.47
2018-03-26T14:58:05.626Z,78.53
2018-03-26T15:00:33.896Z,81.70
2018-03-26T15:03:02.177Z,77.90
2018-03-26T15:05:29.692Z,75.37
2018-03-26T15:07:57.212Z,78.27
2018-03-26T15:10:24.718Z,75.27
2018-03-26T15:12:52.240Z,80.07
2018-03-26T15:15:19.752Z,80.60
2018-03-26T15:17:47.265Z,90.77
2018-03-26T15:20:14.770Z,84.70
2018-03-26T15:22:42.290Z,85.47
2018-03-26T15:25:10.174Z,76.77
2018-03-26T15:27:37.695Z,75.40
2018-03-26T15:30:05.214Z,82.47
2018-03-26T15:32:33.498Z,77.83
2018-03-26T15:35:01.766Z,88.07
2018-03-26T15:37:30.055Z,84.93
2018-03-26T15:39:58.331Z,79.73
2018-03-26T15:42:26.610Z,78.73
2018-03-26T15:44:55.168Z,71.63
2018-03-26T15:47:22.692Z,76.20
2018-03-26T15:49:50.187Z,77.07
2018-03-26T15:52:17.707Z,80.63
2018-03-26T15:54:45.503Z,83.63
2018-03-26T15:57:13.026Z,78.80
2018-03-26T15:59:40.539Z,68.87
2018-03-26T16:02:08.341Z,74.75
2018-03-26T16:04:35.844Z,65.30
2018-03-26T16:07:03.379Z,107.30
2018-03-26T16:09:30.877Z,68.20
2018-03-26T16:11:59.170Z,70.50
2018-03-26T16:14:26.666Z,69.20
2018-03-26T16:16:54.179Z,75.97
2018-03-26T16:19:22.451Z,65.87
2018-03-26T16:21:50.734Z,81.17
2018-03-26T16:24:19.002Z,227.20
2018-03-26T16:26:47.295Z,347.70
2018-03-26T16:29:14.802Z,461.47
2018-03-26T16:31:42.327Z,126.10
2018-03-26T16:34:09.833Z,77.77
2018-03-26T16:36:37.357Z,79.13
2018-03-26T16:39:04.871Z,93.73
2018-03-26T16:41:48.040Z,76.30
2018-03-26T16:44:15.542Z,90.30
2018-03-26T16:46:43.835Z,77.20
2018-03-26T16:49:11.342Z,68.90
2018-03-26T16:51:38.862Z,66.23
2018-03-26T16:54:06.382Z,70.53
2018-03-26T16:56:33.880Z,69.70
2018-03-26T16:59:01.398Z,65.33
2018-03-26T17:01:28.906Z,68.63
2018-03-26T17:03:56.427Z,65.87
2018-03-26T17:06:24.699Z,65.10
2018-03-26T17:08:52.239Z,90.50
2018-03-26T17:11:19.747Z,86.03
2018-03-26T17:13:47.271Z,102.57
2018-03-26T17:16:14.780Z,100.67
2018-03-26T17:18:42.298Z,92.20
2018-03-26T17:21:10.570Z,99.50
2018-03-26T17:23:38.848Z,119.07
2018-03-26T17:26:07.155Z,123.90
2018-03-26T17:28:34.675Z,114.27
2018-03-26T17:31:02.178Z,103.60
2018-03-26T17:33:29.703Z,113.57
2018-03-26T17:35:57.974Z,116.63
2018-03-26T17:38:26.258Z,93.20
2018-03-26T17:40:54.522Z,82.83
2018-03-26T17:43:22.806Z,85.87
2018-03-26T17:45:51.076Z,81.00
2018-03-26T17:48:19.380Z,127.70
2018-03-26T17:50:46.894Z,80.27
2018-03-26T17:53:14.411Z,79.50
2018-03-26T17:55:41.906Z,80.90
2018-03-26T17:58:09.415Z,92.43
2018-03-26T18:00:36.919Z,91.27
2018-03-26T18:03:04.442Z,90.83
2018-03-26T18:05:31.942Z,70.13
2018-03-26T18:07:59.463Z,87.73
2018-03-26T18:10:26.970Z,78.20
2018-03-26T18:12:55.258Z,72.23
2018-03-26T18:15:23.527Z,85.70
2018-03-26T18:17:51.823Z,73.47
2018-03-26T18:20:19.342Z,73.50
2018-03-26T18:22:46.859Z,76.63
2018-03-26T18:25:14.363Z,77.10
2018-03-26T18:27:41.882Z,79.40
2018-03-26T18:30:09.386Z,75.90
2018-03-26T18:32:36.897Z,77.07
2018-03-26T18:35:04.399Z,86.77
2018-03-26T18:37:31.970Z,76.20
2018-03-26T18:39:59.431Z,87.37
2018-03-26T18:42:27.719Z,81.63
2018-03-26T18:44:55.222Z,78.00
2018-03-26T18:47:22.714Z,87.30
2018-03-26T18:49:50.994Z,89.40
2018-03-26T18:52:19.259Z,86.43
2018-03-26T18:54:46.771Z,73.27
2018-03-26T18:57:14.270Z,72.73
2018-03-26T18:59:41.791Z,76.87
2018-03-26T19:02:09.294Z,81.30
2018-03-26T19:04:37.584Z,89.67
2018-03-26T19:07:05.866Z,85.87
2018-03-26T19:09:34.157Z,68.80
2018-03-26T19:12:01.665Z,76.10
2018-03-26T19:14:29.186Z,75.63
2018-03-26T19:16:56.691Z,71.53
2018-03-26T19:19:24.212Z,66.57
2018-03-26T19:21:51.711Z,74.93
2018-03-26T19:24:19.232Z,79.40
2018-03-26T19:26:46.735Z,94.80
2018-03-26T19:29:15.023Z,83.40
2018-03-26T19:31:43.291Z,83.63
2018-03-26T19:34:11.575Z,85.77
2018-03-26T19:36:39.090Z,92.70
2018-03-26T19:39:07.374Z,87.10
2018-03-26T19:41:34.879Z,100.53
2018-03-26T19:44:02.403Z,107.70
2018-03-26T19:46:29.914Z,102.20
2018-03-26T19:48:57.434Z,95.53
2018-03-26T19:51:25.711Z,96.27
2018-03-26T19:53:54.010Z,95.97
2018-03-26T19:56:21.514Z,104.37
2018-03-26T19:58:49.039Z,112.77
2018-03-26T20:01:16.543Z,116.60
2018-03-26T20:03:44.067Z,108.20
2018-03-26T20:06:11.575Z,109.23
2018-03-26T20:08:39.871Z,107.30
2018-03-26T20:11:07.375Z,105.57
2018-03-26T20:13:34.890Z,110.37
2018-03-26T20:16:02.399Z,111.23
2018-03-26T20:18:29.918Z,112.77
2018-03-26T20:20:57.427Z,115.13
2018-03-26T20:23:24.942Z,111.77
2018-03-26T20:25:52.446Z,111.20
2018-03-26T20:28:19.962Z,106.43
2018-03-26T20:30:47.463Z,98.57
2018-03-26T20:33:14.982Z,115.60
2018-03-26T20:35:42.486Z,107.70
2018-03-26T20:38:10.815Z,111.43
2018-03-26T20:40:38.298Z,118.33
2018-03-26T20:43:05.807Z,125.23
2018-03-26T20:45:33.333Z,133.60
2018-03-26T20:48:01.602Z,146.27
2018-03-26T20:50:29.126Z,114.10
2018-03-26T20:52:57.398Z,112.77
2018-03-26T20:55:24.920Z,120.33
2018-03-26T20:57:52.426Z,113.47
2018-03-26T21:00:19.946Z,111.63
2018-03-26T21:02:47.447Z,93.97
2018-03-26T21:05:14.967Z,111.30
2018-03-26T21:07:42.477Z,113.60
2018-03-26T21:10:10.003Z,111.47
2018-03-26T21:12:37.516Z,104.33
2018-03-26T21:15:05.876Z,98.10
2018-03-26T21:17:33.380Z,97.50
2018-03-26T21:20:00.902Z,103.50
2018-03-26T21:22:29.175Z,110.07
2018-03-26T21:24:57.464Z,106.50
2018-03-26T21:27:25.730Z,101.80
2018-03-26T21:29:54.014Z,97.30
2018-03-26T21:32:22.282Z,112.00
2018-03-26T21:34:50.575Z,118.80
2018-03-26T21:37:18.842Z,119.30
2018-03-26T21:39:47.144Z,118.30
2018-03-26T21:42:14.655Z,113.60
2018-03-26T21:44:42.179Z,105.00
2018-03-26T21:47:09.698Z,107.00
2018-03-26T21:49:37.983Z,101.67
2018-03-26T21:52:05.494Z,107.07
2018-03-26T21:54:33.024Z,112.27
2018-03-26T21:57:00.550Z,106.03
2018-03-26T21:59:28.841Z,114.00
2018-03-26T22:01:56.346Z,105.93
2018-03-26T22:04:23.872Z,112.80
2018-03-26T22:06:51.381Z,104.67
2018-03-26T22:09:18.906Z,122.47
2018-03-26T22:11:46.410Z,105.60
2018-03-26T22:14:14.702Z,107.93
2018-03-26T22:16:42.210Z,120.00
2018-03-26T22:19:09.731Z,121.77
2018-03-26T22:21:37.239Z,115.63
2018-03-26T22:24:04.763Z,112.50
2018-03-26T22:26:32.271Z,114.10
2018-03-26T22:29:00.566Z,112.80
2018-03-26T22:31:28.070Z,107.40
2018-03-26T22:33:55.598Z,106.27
2018-03-26T22:36:23.119Z,123.20
2018-03-26T22:38:51.406Z,116.27
2018-03-26T22:41:19.683Z,96.83
2018-03-26T22:43:47.966Z,116.90
2018-03-26T22:46:15.487Z,101.40
2018-03-26T22:48:43.003Z,116.37
2018-03-26T22:51:10.526Z,114.40
2018-03-26T22:53:38.800Z,123.20
2018-03-26T22:56:07.086Z,113.23
2018-03-26T22:58:35.429Z,119.80
2018-03-26T23:01:02.902Z,103.80
2018-03-26T23:03:30.410Z,119.73
2018-03-26T23:05:57.939Z,90.50
2018-03-26T23:08:26.215Z,117.97
2018-03-26T23:10:54.507Z,119.90
2018-03-26T23:13:22.010Z,114.43
2018-03-26T23:15:49.532Z,127.57
2018-03-26T23:18:17.036Z,130.03
2018-03-26T23:20:44.571Z,127.97
2018-03-26T23:23:12.090Z,124.87
2018-03-26T23:25:39.610Z,116.60
2018-03-26T23:28:07.114Z,120.80
2018-03-26T23:30:34.646Z,120.10
2018-03-26T23:33:02.923Z,133.80
2018-03-26T23:35:31.214Z,132.77
2018-03-26T23:37:58.722Z,126.73
2018-03-26T23:40:26.238Z,130.27
2018-03-26T23:42:53.751Z,122.17
2018-03-26T23:45:21.276Z,129.47
2018-03-26T23:47:48.794Z,114.13
2018-03-26T23:50:17.078Z,142.00
2018-03-26T23:52:45.359Z,140.07
2018-03-26T23:55:12.898Z,130.97
2018-03-26T23:57:41.183Z,137.17
